Union Center, Pennsylvania
Current Conditions -  °F | °C
As of 1:15 PM on Monday 22 Dec 2014 (Local Time) from KN38 Reporting Station
Overcast Overcast  
Wind Chill: 18°   Ceiling: 1100
Heat Index: 28°   Visibility: 10mi
Dew Point: 25°   Wind: 12mph
Humidity: 86%   Direction: 180°S
Pressure: 30.13"   Gusts: NA
Location:  41.669°N, 76.8999°W
Report Text: KN38 221815Z AUTO 18010KT 10SM OVC011 M02/M04 A3013 RMK AO2
Loading
Personal Weather Stations






























Interactive Weather Map New forecast layout! Learn more

10-Day Weather Forecast

Advertisements
Track Severe Weather on mobile